Japan Airlines Virtual Airport Information Service

Kota Kinabalu International Airport

ICAO: WBKK Country: Malaysia
Latitude: 5.93721 Longitude: 116.051
Latest Arrival : MAS2135 (WBKW-WBKK) Latest Departure : MAS2134 (WBKK-WBKW)


WX CaptureLIVE
Data provided by noaa.gov | Fetched at 15:34:18

METAR : WBKK 211500Z 14004KT 9999 FEW014 27/25 Q1008 NOSIG

TAF : WBKK 211100Z 2112/2212 11005KT 9999 FEW014 PROB30 TEMPO 2112/2115 5000 TSRA FEW013 FEW015CB SCT035 BECMG 2200/2202 23007KT


Runway Data for WBKK
Data provided by openaviationdata.com

Runway ID Mag Var Hdg Length Elevation Surface ILS Freq ILS Id ILS Slope
2 0 22° 9829 ft 10 ft Asphalt 110.3 IKKS 3
20 0 202° 9829 ft 10 ft Asphalt -- -- --

Kota Kinabalu International Airport, Malaysia
Use only for reference purposes



Not for navigational purposes.